sensor_id;sensor_type;location;lat;lon;timestamp;temperature;humidity
16404;DHT22;8311;50.158;8.642;2023-04-24T00:02:17;21.80;46.70
16404;DHT22;8311;50.158;8.642;2023-04-24T00:05:10;21.80;46.70
16404;DHT22;8311;50.158;8.642;2023-04-24T00:08:03;21.80;46.70
16404;DHT22;8311;50.158;8.642;2023-04-24T00:10:56;21.80;46.60
16404;DHT22;8311;50.158;8.642;2023-04-24T00:13:49;21.80;46.60
16404;DHT22;8311;50.158;8.642;2023-04-24T00:16:42;21.80;46.60
16404;DHT22;8311;50.158;8.642;2023-04-24T00:19:37;21.80;46.60
16404;DHT22;8311;50.158;8.642;2023-04-24T00:22:30;21.80;46.50
16404;DHT22;8311;50.158;8.642;2023-04-24T00:25:24;21.80;46.50
16404;DHT22;8311;50.158;8.642;2023-04-24T00:28:17;21.80;46.50
16404;DHT22;8311;50.158;8.642;2023-04-24T00:31:10;21.80;46.50
16404;DHT22;8311;50.158;8.642;2023-04-24T00:34:03;21.80;46.50
16404;DHT22;8311;50.158;8.642;2023-04-24T00:36:58;21.80;46.40
16404;DHT22;8311;50.158;8.642;2023-04-24T00:39:52;21.80;46.40
16404;DHT22;8311;50.158;8.642;2023-04-24T00:42:46;21.80;46.40
16404;DHT22;8311;50.158;8.642;2023-04-24T00:45:39;21.80;46.40
16404;DHT22;8311;50.158;8.642;2023-04-24T00:48:32;21.80;46.40
16404;DHT22;8311;50.158;8.642;2023-04-24T00:51:25;21.80;46.40
16404;DHT22;8311;50.158;8.642;2023-04-24T00:54:21;21.80;46.40
16404;DHT22;8311;50.158;8.642;2023-04-24T00:57:14;21.80;46.40
16404;DHT22;8311;50.158;8.642;2023-04-24T01:00:08;21.80;46.40
16404;DHT22;8311;50.158;8.642;2023-04-24T01:03:04;21.80;46.40
16404;DHT22;8311;50.158;8.642;2023-04-24T01:05:59;21.80;46.40
16404;DHT22;8311;50.158;8.642;2023-04-24T01:08:54;21.80;46.40
16404;DHT22;8311;50.158;8.642;2023-04-24T01:11:49;21.80;46.40
16404;DHT22;8311;50.158;8.642;2023-04-24T01:14:42;21.80;46.40
16404;DHT22;8311;50.158;8.642;2023-04-24T01:17:35;21.80;46.40
16404;DHT22;8311;50.158;8.642;2023-04-24T01:20:30;21.80;46.40
16404;DHT22;8311;50.158;8.642;2023-04-24T01:23:26;21.80;46.40
16404;DHT22;8311;50.158;8.642;2023-04-24T01:26:19;21.80;46.40
16404;DHT22;8311;50.158;8.642;2023-04-24T01:29:12;21.80;46.40
16404;DHT22;8311;50.158;8.642;2023-04-24T01:32:06;21.80;46.40
16404;DHT22;8311;50.158;8.642;2023-04-24T01:35:00;21.80;46.30
16404;DHT22;8311;50.158;8.642;2023-04-24T01:37:54;21.80;46.30
16404;DHT22;8311;50.158;8.642;2023-04-24T01:40:49;21.80;46.30
16404;DHT22;8311;50.158;8.642;2023-04-24T01:43:42;21.80;46.30
16404;DHT22;8311;50.158;8.642;2023-04-24T01:46:36;21.80;46.30
16404;DHT22;8311;50.158;8.642;2023-04-24T01:49:29;21.80;46.30
16404;DHT22;8311;50.158;8.642;2023-04-24T01:52:23;21.80;46.30
16404;DHT22;8311;50.158;8.642;2023-04-24T01:55:16;21.80;46.90
16404;DHT22;8311;50.158;8.642;2023-04-24T01:58:10;21.80;46.20
16404;DHT22;8311;50.158;8.642;2023-04-24T02:01:06;21.80;46.20
16404;DHT22;8311;50.158;8.642;2023-04-24T02:03:59;21.70;46.10
16404;DHT22;8311;50.158;8.642;2023-04-24T02:06:53;21.80;46.20
16404;DHT22;8311;50.158;8.642;2023-04-24T02:09:46;21.80;46.20
16404;DHT22;8311;50.158;8.642;2023-04-24T02:12:39;21.80;46.20
16404;DHT22;8311;50.158;8.642;2023-04-24T02:15:33;21.70;46.10
16404;DHT22;8311;50.158;8.642;2023-04-24T02:18:27;21.80;46.20
16404;DHT22;8311;50.158;8.642;2023-04-24T02:21:21;21.80;46.20
16404;DHT22;8311;50.158;8.642;2023-04-24T02:24:14;21.80;46.20
16404;DHT22;8311;50.158;8.642;2023-04-24T02:27:07;21.80;46.20
16404;DHT22;8311;50.158;8.642;2023-04-24T02:30:00;21.80;46.20
16404;DHT22;8311;50.158;8.642;2023-04-24T02:32:55;21.80;46.20
16404;DHT22;8311;50.158;8.642;2023-04-24T02:35:49;21.80;46.20
16404;DHT22;8311;50.158;8.642;2023-04-24T02:38:42;21.80;46.20
16404;DHT22;8311;50.158;8.642;2023-04-24T02:41:35;21.80;46.20
16404;DHT22;8311;50.158;8.642;2023-04-24T02:44:28;21.70;46.10
16404;DHT22;8311;50.158;8.642;2023-04-24T02:47:21;21.80;46.10
16404;DHT22;8311;50.158;8.642;2023-04-24T02:50:16;21.80;46.10
16404;DHT22;8311;50.158;8.642;2023-04-24T02:53:09;21.80;46.10
16404;DHT22;8311;50.158;8.642;2023-04-24T02:56:02;21.70;46.10
16404;DHT22;8311;50.158;8.642;2023-04-24T02:58:55;21.80;46.10
16404;DHT22;8311;50.158;8.642;2023-04-24T03:01:48;21.70;46.00
16404;DHT22;8311;50.158;8.642;2023-04-24T03:04:41;21.80;46.10
16404;DHT22;8311;50.158;8.642;2023-04-24T03:07:36;21.70;46.00
16404;DHT22;8311;50.158;8.642;2023-04-24T03:10:29;21.80;46.00
16404;DHT22;8311;50.158;8.642;2023-04-24T03:13:22;21.80;46.00
16404;DHT22;8311;50.158;8.642;2023-04-24T03:16:15;21.80;46.00
16404;DHT22;8311;50.158;8.642;2023-04-24T03:19:08;21.80;46.00
16404;DHT22;8311;50.158;8.642;2023-04-24T03:22:02;21.70;45.80
16404;DHT22;8311;50.158;8.642;2023-04-24T03:24:57;21.80;45.90
16404;DHT22;8311;50.158;8.642;2023-04-24T03:27:50;21.80;45.90
16404;DHT22;8311;50.158;8.642;2023-04-24T03:30:43;21.80;45.90
16404;DHT22;8311;50.158;8.642;2023-04-24T03:33:36;21.70;45.90
16404;DHT22;8311;50.158;8.642;2023-04-24T03:36:30;21.70;45.90
16404;DHT22;8311;50.158;8.642;2023-04-24T03:39:23;21.80;45.90
16404;DHT22;8311;50.158;8.642;2023-04-24T03:42:19;21.70;45.80
16404;DHT22;8311;50.158;8.642;2023-04-24T03:45:12;21.70;45.80
16404;DHT22;8311;50.158;8.642;2023-04-24T03:48:05;21.80;45.90
16404;DHT22;8311;50.158;8.642;2023-04-24T03:50:59;21.80;45.90
16404;DHT22;8311;50.158;8.642;2023-04-24T03:53:52;21.70;45.90
16404;DHT22;8311;50.158;8.642;2023-04-24T03:56:45;21.70;45.80
16404;DHT22;8311;50.158;8.642;2023-04-24T03:59:40;21.70;45.80
16404;DHT22;8311;50.158;8.642;2023-04-24T04:02:33;21.70;45.80
16404;DHT22;8311;50.158;8.642;2023-04-24T04:05:26;21.70;45.80
16404;DHT22;8311;50.158;8.642;2023-04-24T04:08:19;21.80;45.80
16404;DHT22;8311;50.158;8.642;2023-04-24T04:11:12;21.80;45.80
16404;DHT22;8311;50.158;8.642;2023-04-24T04:14:05;21.70;45.80
16404;DHT22;8311;50.158;8.642;2023-04-24T04:17:00;21.70;45.70
16404;DHT22;8311;50.158;8.642;2023-04-24T04:19:53;21.70;45.70
16404;DHT22;8311;50.158;8.642;2023-04-24T04:22:46;21.70;45.70
16404;DHT22;8311;50.158;8.642;2023-04-24T04:25:40;21.70;45.70
16404;DHT22;8311;50.158;8.642;2023-04-24T04:28:32;21.70;45.60
16404;DHT22;8311;50.158;8.642;2023-04-24T04:31:25;21.70;45.60
16404;DHT22;8311;50.158;8.642;2023-04-24T04:34:20;21.70;45.60
16404;DHT22;8311;50.158;8.642;2023-04-24T04:37:14;21.70;45.50
16404;DHT22;8311;50.158;8.642;2023-04-24T04:40:08;21.70;45.50
16404;DHT22;8311;50.158;8.642;2023-04-24T04:43:03;21.70;45.40
16404;DHT22;8311;50.158;8.642;2023-04-24T04:45:57;21.70;45.30
16404;DHT22;8311;50.158;8.642;2023-04-24T04:48:53;21.70;45.20
16404;DHT22;8311;50.158;8.642;2023-04-24T04:51:47;21.70;45.10
16404;DHT22;8311;50.158;8.642;2023-04-24T04:54:41;21.70;45.00
16404;DHT22;8311;50.158;8.642;2023-04-24T04:57:34;21.70;44.90
16404;DHT22;8311;50.158;8.642;2023-04-24T05:00:27;21.70;44.90
16404;DHT22;8311;50.158;8.642;2023-04-24T05:03:26;21.70;44.80
16404;DHT22;8311;50.158;8.642;2023-04-24T05:06:19;21.70;44.70
16404;DHT22;8311;50.158;8.642;2023-04-24T05:09:16;21.70;44.60
16404;DHT22;8311;50.158;8.642;2023-04-24T05:12:10;21.70;44.60
16404;DHT22;8311;50.158;8.642;2023-04-24T05:15:02;21.70;44.50
16404;DHT22;8311;50.158;8.642;2023-04-24T05:17:57;21.70;44.40
16404;DHT22;8311;50.158;8.642;2023-04-24T05:20:50;21.70;44.30
16404;DHT22;8311;50.158;8.642;2023-04-24T05:23:43;21.70;44.30
16404;DHT22;8311;50.158;8.642;2023-04-24T05:26:37;21.70;44.20
16404;DHT22;8311;50.158;8.642;2023-04-24T05:29:30;21.70;44.10
16404;DHT22;8311;50.158;8.642;2023-04-24T05:32:24;21.70;43.90
16404;DHT22;8311;50.158;8.642;2023-04-24T05:35:18;21.70;43.80
16404;DHT22;8311;50.158;8.642;2023-04-24T05:38:11;21.70;43.80
16404;DHT22;8311;50.158;8.642;2023-04-24T05:41:05;21.70;43.80
16404;DHT22;8311;50.158;8.642;2023-04-24T05:43:59;21.70;43.80
16404;DHT22;8311;50.158;8.642;2023-04-24T05:46:53;21.70;43.80
16404;DHT22;8311;50.158;8.642;2023-04-24T05:49:47;21.70;43.80
16404;DHT22;8311;50.158;8.642;2023-04-24T05:52:40;21.70;43.80
16404;DHT22;8311;50.158;8.642;2023-04-24T05:55:33;21.70;43.70
16404;DHT22;8311;50.158;8.642;2023-04-24T05:58:27;21.70;43.60
16404;DHT22;8311;50.158;8.642;2023-04-24T06:01:22;21.70;43.60
16404;DHT22;8311;50.158;8.642;2023-04-24T06:04:17;21.70;43.60
16404;DHT22;8311;50.158;8.642;2023-04-24T06:07:11;21.70;43.60
16404;DHT22;8311;50.158;8.642;2023-04-24T06:10:04;21.70;43.40
16404;DHT22;8311;50.158;8.642;2023-04-24T06:12:58;21.70;43.40
16404;DHT22;8311;50.158;8.642;2023-04-24T06:15:52;21.70;43.30
16404;DHT22;8311;50.158;8.642;2023-04-24T06:18:46;21.70;43.30
16404;DHT22;8311;50.158;8.642;2023-04-24T06:21:39;21.70;43.30
16404;DHT22;8311;50.158;8.642;2023-04-24T06:24:37;21.70;43.80
16404;DHT22;8311;50.158;8.642;2023-04-24T06:27:30;21.60;43.10
16404;DHT22;8311;50.158;8.642;2023-04-24T06:30:23;21.70;43.00
16404;DHT22;8311;50.158;8.642;2023-04-24T06:33:16;21.70;43.00
16404;DHT22;8311;50.158;8.642;2023-04-24T06:36:15;21.60;42.90
16404;DHT22;8311;50.158;8.642;2023-04-24T06:39:09;21.70;42.80
16404;DHT22;8311;50.158;8.642;2023-04-24T06:42:02;21.70;42.80
16404;DHT22;8311;50.158;8.642;2023-04-24T06:44:55;21.60;42.70
16404;DHT22;8311;50.158;8.642;2023-04-24T06:47:48;21.60;42.70
16404;DHT22;8311;50.158;8.642;2023-04-24T06:50:43;21.60;42.60
16404;DHT22;8311;50.158;8.642;2023-04-24T06:53:38;21.70;42.50
16404;DHT22;8311;50.158;8.642;2023-04-24T06:56:31;21.60;42.50
16404;DHT22;8311;50.158;8.642;2023-04-24T06:59:25;21.60;42.50
16404;DHT22;8311;50.158;8.642;2023-04-24T07:02:18;21.70;42.40
16404;DHT22;8311;50.158;8.642;2023-04-24T07:05:12;21.60;42.40
16404;DHT22;8311;50.158;8.642;2023-04-24T07:08:07;21.60;42.60
16404;DHT22;8311;50.158;8.642;2023-04-24T07:11:04;21.60;42.20
16404;DHT22;8311;50.158;8.642;2023-04-24T07:13:58;21.70;42.50
16404;DHT22;8311;50.158;8.642;2023-04-24T07:16:50;21.60;43.10
16404;DHT22;8311;50.158;8.642;2023-04-24T07:19:44;21.60;42.50
16404;DHT22;8311;50.158;8.642;2023-04-24T07:22:38;21.60;42.50
16404;DHT22;8311;50.158;8.642;2023-04-24T07:25:30;21.60;42.50
16404;DHT22;8311;50.158;8.642;2023-04-24T07:28:25;21.60;42.50
16404;DHT22;8311;50.158;8.642;2023-04-24T07:31:19;21.70;42.50
16404;DHT22;8311;50.158;8.642;2023-04-24T07:34:12;21.60;42.50
16404;DHT22;8311;50.158;8.642;2023-04-24T07:37:06;21.60;41.30
16404;DHT22;8311;50.158;8.642;2023-04-24T07:39:58;21.60;42.50
16404;DHT22;8311;50.158;8.642;2023-04-24T07:42:52;21.60;42.60
16404;DHT22;8311;50.158;8.642;2023-04-24T07:45:46;21.60;42.60
16404;DHT22;8311;50.158;8.642;2023-04-24T07:48:39;21.60;42.70
16404;DHT22;8311;50.158;8.642;2023-04-24T07:51:32;21.70;42.70
16404;DHT22;8311;50.158;8.642;2023-04-24T07:54:30;21.70;42.80
16404;DHT22;8311;50.158;8.642;2023-04-24T07:57:22;21.60;42.70
16404;DHT22;8311;50.158;8.642;2023-04-24T08:00:16;21.60;42.80
16404;DHT22;8311;50.158;8.642;2023-04-24T08:03:11;21.60;42.70
16404;DHT22;8311;50.158;8.642;2023-04-24T08:06:05;21.60;42.80
16404;DHT22;8311;50.158;8.642;2023-04-24T08:08:59;21.60;42.70
16404;DHT22;8311;50.158;8.642;2023-04-24T08:11:52;21.70;42.70
16404;DHT22;8311;50.158;8.642;2023-04-24T08:14:46;21.70;42.60
16404;DHT22;8311;50.158;8.642;2023-04-24T08:17:39;21.70;42.70
16404;DHT22;8311;50.158;8.642;2023-04-24T08:20:34;21.60;42.70
16404;DHT22;8311;50.158;8.642;2023-04-24T08:23:28;21.70;42.70
16404;DHT22;8311;50.158;8.642;2023-04-24T08:26:21;21.60;42.80
16404;DHT22;8311;50.158;8.642;2023-04-24T08:29:15;21.70;42.90
16404;DHT22;8311;50.158;8.642;2023-04-24T08:32:07;21.70;42.90
16404;DHT22;8311;50.158;8.642;2023-04-24T08:35:01;21.70;43.00
16404;DHT22;8311;50.158;8.642;2023-04-24T08:37:56;21.70;43.00
16404;DHT22;8311;50.158;8.642;2023-04-24T08:40:50;21.70;43.00
16404;DHT22;8311;50.158;8.642;2023-04-24T08:43:43;21.70;41.90
16404;DHT22;8311;50.158;8.642;2023-04-24T08:46:39;21.60;42.90
16404;DHT22;8311;50.158;8.642;2023-04-24T08:49:36;21.70;43.00
16404;DHT22;8311;50.158;8.642;2023-04-24T08:52:30;21.60;43.00
16404;DHT22;8311;50.158;8.642;2023-04-24T08:55:25;21.60;42.90
16404;DHT22;8311;50.158;8.642;2023-04-24T08:58:19;21.70;42.90
16404;DHT22;8311;50.158;8.642;2023-04-24T09:01:13;21.70;42.90
16404;DHT22;8311;50.158;8.642;2023-04-24T09:04:08;21.60;42.70
16404;DHT22;8311;50.158;8.642;2023-04-24T09:07:03;21.60;42.50
16404;DHT22;8311;50.158;8.642;2023-04-24T09:09:57;21.60;42.40
16404;DHT22;8311;50.158;8.642;2023-04-24T09:12:52;21.60;42.40
16404;DHT22;8311;50.158;8.642;2023-04-24T09:15:44;21.60;42.40
16404;DHT22;8311;50.158;8.642;2023-04-24T09:18:38;21.60;42.40
16404;DHT22;8311;50.158;8.642;2023-04-24T09:21:32;21.70;42.30
16404;DHT22;8311;50.158;8.642;2023-04-24T09:24:25;21.60;42.30
16404;DHT22;8311;50.158;8.642;2023-04-24T09:27:18;21.60;42.90
16404;DHT22;8311;50.158;8.642;2023-04-24T09:30:14;21.60;42.20
16404;DHT22;8311;50.158;8.642;2023-04-24T09:33:14;21.60;42.20
16404;DHT22;8311;50.158;8.642;2023-04-24T09:36:08;21.60;42.20
16404;DHT22;8311;50.158;8.642;2023-04-24T09:39:02;21.60;42.30
16404;DHT22;8311;50.158;8.642;2023-04-24T09:41:56;21.60;42.30
16404;DHT22;8311;50.158;8.642;2023-04-24T09:44:51;21.60;41.40
16404;DHT22;8311;50.158;8.642;2023-04-24T09:47:56;21.60;42.20
16404;DHT22;8311;50.158;8.642;2023-04-24T09:50:52;21.60;42.20
16404;DHT22;8311;50.158;8.642;2023-04-24T09:53:46;21.60;42.20
16404;DHT22;8311;50.158;8.642;2023-04-24T09:56:42;21.60;42.10
16404;DHT22;8311;50.158;8.642;2023-04-24T09:59:42;21.60;42.10
16404;DHT22;8311;50.158;8.642;2023-04-24T10:02:36;21.60;42.00
16404;DHT22;8311;50.158;8.642;2023-04-24T10:05:33;21.60;42.00
16404;DHT22;8311;50.158;8.642;2023-04-24T10:08:27;21.60;42.10
16404;DHT22;8311;50.158;8.642;2023-04-24T10:11:26;21.60;42.10
16404;DHT22;8311;50.158;8.642;2023-04-24T10:14:21;21.60;42.00
16404;DHT22;8311;50.158;8.642;2023-04-24T10:17:14;21.60;42.10
16404;DHT22;8311;50.158;8.642;2023-04-24T10:20:09;21.60;42.20
16404;DHT22;8311;50.158;8.642;2023-04-24T10:23:04;21.60;42.20
16404;DHT22;8311;50.158;8.642;2023-04-24T10:25:56;21.60;42.30
16404;DHT22;8311;50.158;8.642;2023-04-24T10:28:50;21.60;42.20
16404;DHT22;8311;50.158;8.642;2023-04-24T10:31:44;21.60;42.30
16404;DHT22;8311;50.158;8.642;2023-04-24T10:34:38;21.60;42.30
16404;DHT22;8311;50.158;8.642;2023-04-24T10:37:35;21.60;42.40
16404;DHT22;8311;50.158;8.642;2023-04-24T10:40:33;21.60;42.40
16404;DHT22;8311;50.158;8.642;2023-04-24T10:43:27;21.60;42.40
16404;DHT22;8311;50.158;8.642;2023-04-24T10:46:20;21.60;42.40
16404;DHT22;8311;50.158;8.642;2023-04-24T10:49:14;21.60;42.40
16404;DHT22;8311;50.158;8.642;2023-04-24T10:52:09;21.60;42.50
16404;DHT22;8311;50.158;8.642;2023-04-24T10:55:03;21.60;42.50
16404;DHT22;8311;50.158;8.642;2023-04-24T10:58:04;21.60;42.60
16404;DHT22;8311;50.158;8.642;2023-04-24T11:00:59;21.60;42.60
16404;DHT22;8311;50.158;8.642;2023-04-24T11:03:55;21.60;42.70
16404;DHT22;8311;50.158;8.642;2023-04-24T11:06:48;21.60;42.70
16404;DHT22;8311;50.158;8.642;2023-04-24T11:09:43;21.60;42.70
16404;DHT22;8311;50.158;8.642;2023-04-24T11:12:37;21.60;42.80
16404;DHT22;8311;50.158;8.642;2023-04-24T11:15:32;21.60;42.80
16404;DHT22;8311;50.158;8.642;2023-04-24T11:18:25;21.60;42.80
16404;DHT22;8311;50.158;8.642;2023-04-24T11:21:17;21.60;42.90
16404;DHT22;8311;50.158;8.642;2023-04-24T11:24:30;21.60;42.90
16404;DHT22;8311;50.158;8.642;2023-04-24T11:27:23;21.60;43.00
16404;DHT22;8311;50.158;8.642;2023-04-24T11:30:18;21.60;43.00
16404;DHT22;8311;50.158;8.642;2023-04-24T11:33:20;21.60;43.00
16404;DHT22;8311;50.158;8.642;2023-04-24T11:36:13;21.60;43.10
16404;DHT22;8311;50.158;8.642;2023-04-24T11:39:06;21.60;43.10
16404;DHT22;8311;50.158;8.642;2023-04-24T11:42:02;21.60;43.10
16404;DHT22;8311;50.158;8.642;2023-04-24T11:44:55;21.60;43.20
16404;DHT22;8311;50.158;8.642;2023-04-24T11:47:50;21.60;43.20
16404;DHT22;8311;50.158;8.642;2023-04-24T11:50:47;21.60;43.30
16404;DHT22;8311;50.158;8.642;2023-04-24T11:53:41;21.60;43.30
16404;DHT22;8311;50.158;8.642;2023-04-24T11:56:36;21.60;43.30
16404;DHT22;8311;50.158;8.642;2023-04-24T11:59:30;21.60;43.20
16404;DHT22;8311;50.158;8.642;2023-04-24T12:02:27;21.60;43.20
16404;DHT22;8311;50.158;8.642;2023-04-24T12:05:21;21.60;43.20
16404;DHT22;8311;50.158;8.642;2023-04-24T12:08:28;21.60;43.30
16404;DHT22;8311;50.158;8.642;2023-04-24T12:11:21;21.60;43.30
16404;DHT22;8311;50.158;8.642;2023-04-24T12:14:15;21.60;43.30
16404;DHT22;8311;50.158;8.642;2023-04-24T12:17:08;21.60;43.30
16404;DHT22;8311;50.158;8.642;2023-04-24T12:20:03;21.60;43.30
16404;DHT22;8311;50.158;8.642;2023-04-24T12:22:59;21.60;43.90
16404;DHT22;8311;50.158;8.642;2023-04-24T12:25:54;21.60;43.30
16404;DHT22;8311;50.158;8.642;2023-04-24T12:28:53;21.60;43.30
16404;DHT22;8311;50.158;8.642;2023-04-24T12:31:46;21.60;43.30
16404;DHT22;8311;50.158;8.642;2023-04-24T12:34:39;21.60;43.30
16404;DHT22;8311;50.158;8.642;2023-04-24T12:37:33;21.60;43.20
16404;DHT22;8311;50.158;8.642;2023-04-24T12:40:28;21.60;43.80
16404;DHT22;8311;50.158;8.642;2023-04-24T12:43:24;21.60;43.20
16404;DHT22;8311;50.158;8.642;2023-04-24T12:46:17;21.60;43.30
16404;DHT22;8311;50.158;8.642;2023-04-24T12:49:13;21.60;43.30
16404;DHT22;8311;50.158;8.642;2023-04-24T12:52:07;21.60;43.30
16404;DHT22;8311;50.158;8.642;2023-04-24T12:55:01;21.60;43.40
16404;DHT22;8311;50.158;8.642;2023-04-24T12:57:54;21.60;43.40
16404;DHT22;8311;50.158;8.642;2023-04-24T13:00:49;21.60;43.40
16404;DHT22;8311;50.158;8.642;2023-04-24T13:03:43;21.60;43.50
16404;DHT22;8311;50.158;8.642;2023-04-24T13:06:36;21.60;43.50
16404;DHT22;8311;50.158;8.642;2023-04-24T13:09:30;21.60;43.50
16404;DHT22;8311;50.158;8.642;2023-04-24T13:12:23;21.60;43.50
16404;DHT22;8311;50.158;8.642;2023-04-24T13:15:17;21.60;43.50
16404;DHT22;8311;50.158;8.642;2023-04-24T13:18:11;21.60;43.50
16404;DHT22;8311;50.158;8.642;2023-04-24T13:21:05;21.60;43.60
16404;DHT22;8311;50.158;8.642;2023-04-24T13:23:58;21.60;43.60
16404;DHT22;8311;50.158;8.642;2023-04-24T13:26:51;21.60;43.60
16404;DHT22;8311;50.158;8.642;2023-04-24T13:29:45;21.60;43.60
16404;DHT22;8311;50.158;8.642;2023-04-24T13:32:38;21.60;43.60
16404;DHT22;8311;50.158;8.642;2023-04-24T13:35:32;21.60;43.60
16404;DHT22;8311;50.158;8.642;2023-04-24T13:38:26;21.60;43.70
16404;DHT22;8311;50.158;8.642;2023-04-24T13:41:19;21.60;43.70
16404;DHT22;8311;50.158;8.642;2023-04-24T13:44:12;21.60;43.70
16404;DHT22;8311;50.158;8.642;2023-04-24T13:47:05;21.60;43.80
16404;DHT22;8311;50.158;8.642;2023-04-24T13:49:59;21.60;43.80
16404;DHT22;8311;50.158;8.642;2023-04-24T13:52:53;21.60;43.80
16404;DHT22;8311;50.158;8.642;2023-04-24T13:55:48;21.60;43.90
16404;DHT22;8311;50.158;8.642;2023-04-24T13:58:40;21.60;43.90
16404;DHT22;8311;50.158;8.642;2023-04-24T14:01:34;21.60;43.90
16404;DHT22;8311;50.158;8.642;2023-04-24T14:04:28;21.60;43.90
16404;DHT22;8311;50.158;8.642;2023-04-24T14:07:22;21.60;44.00
16404;DHT22;8311;50.158;8.642;2023-04-24T14:10:16;21.60;44.00
16404;DHT22;8311;50.158;8.642;2023-04-24T14:13:10;21.60;44.00
16404;DHT22;8311;50.158;8.642;2023-04-24T14:16:03;21.60;44.10
16404;DHT22;8311;50.158;8.642;2023-04-24T14:18:56;21.60;44.10
16404;DHT22;8311;50.158;8.642;2023-04-24T14:21:48;21.60;44.10
16404;DHT22;8311;50.158;8.642;2023-04-24T14:24:42;21.60;44.10
16404;DHT22;8311;50.158;8.642;2023-04-24T14:27:36;21.60;44.20
16404;DHT22;8311;50.158;8.642;2023-04-24T14:30:29;21.60;44.20
16404;DHT22;8311;50.158;8.642;2023-04-24T14:33:22;21.60;44.20
16404;DHT22;8311;50.158;8.642;2023-04-24T14:36:15;21.60;44.20
16404;DHT22;8311;50.158;8.642;2023-04-24T14:39:09;21.60;44.20
16404;DHT22;8311;50.158;8.642;2023-04-24T14:42:03;21.60;44.20
16404;DHT22;8311;50.158;8.642;2023-04-24T14:44:57;21.60;44.20
16404;DHT22;8311;50.158;8.642;2023-04-24T14:47:51;21.60;44.20
16404;DHT22;8311;50.158;8.642;2023-04-24T14:50:45;21.60;44.10
16404;DHT22;8311;50.158;8.642;2023-04-24T14:53:37;21.60;44.10
16404;DHT22;8311;50.158;8.642;2023-04-24T14:56:31;21.60;44.10
16404;DHT22;8311;50.158;8.642;2023-04-24T14:59:23;21.60;44.10
16404;DHT22;8311;50.158;8.642;2023-04-24T15:02:18;21.60;44.10
16404;DHT22;8311;50.158;8.642;2023-04-24T15:05:13;21.60;44.00
16404;DHT22;8311;50.158;8.642;2023-04-24T15:08:07;21.60;44.00
16404;DHT22;8311;50.158;8.642;2023-04-24T15:11:00;21.60;43.90
16404;DHT22;8311;50.158;8.642;2023-04-24T15:13:53;21.60;43.90
16404;DHT22;8311;50.158;8.642;2023-04-24T15:16:46;21.60;43.80
16404;DHT22;8311;50.158;8.642;2023-04-24T15:19:40;21.60;43.90
16404;DHT22;8311;50.158;8.642;2023-04-24T15:22:34;21.60;43.80
16404;DHT22;8311;50.158;8.642;2023-04-24T15:25:28;21.60;43.80
16404;DHT22;8311;50.158;8.642;2023-04-24T15:28:22;21.60;43.80
16404;DHT22;8311;50.158;8.642;2023-04-24T15:31:15;21.60;43.80
16404;DHT22;8311;50.158;8.642;2023-04-24T15:34:08;21.60;43.70
16404;DHT22;8311;50.158;8.642;2023-04-24T15:37:02;21.60;43.70
16404;DHT22;8311;50.158;8.642;2023-04-24T15:39:56;21.60;44.00
16404;DHT22;8311;50.158;8.642;2023-04-24T15:42:51;21.60;43.70
16404;DHT22;8311;50.158;8.642;2023-04-24T15:45:44;21.60;43.60
16404;DHT22;8311;50.158;8.642;2023-04-24T15:48:37;21.60;43.60
16404;DHT22;8311;50.158;8.642;2023-04-24T15:51:32;21.60;43.60
16404;DHT22;8311;50.158;8.642;2023-04-24T15:54:27;21.60;43.60
16404;DHT22;8311;50.158;8.642;2023-04-24T15:57:21;21.60;43.60
16404;DHT22;8311;50.158;8.642;2023-04-24T16:00:15;21.60;43.60
16404;DHT22;8311;50.158;8.642;2023-04-24T16:03:09;21.60;43.60
16404;DHT22;8311;50.158;8.642;2023-04-24T16:06:03;21.60;43.60
16404;DHT22;8311;50.158;8.642;2023-04-24T16:08:56;21.60;43.60
16404;DHT22;8311;50.158;8.642;2023-04-24T16:11:53;21.60;43.70
16404;DHT22;8311;50.158;8.642;2023-04-24T16:14:46;21.60;43.60
16404;DHT22;8311;50.158;8.642;2023-04-24T16:17:40;21.60;43.60
16404;DHT22;8311;50.158;8.642;2023-04-24T16:20:34;21.60;43.60
16404;DHT22;8311;50.158;8.642;2023-04-24T16:23:27;21.60;43.70
16404;DHT22;8311;50.158;8.642;2023-04-24T16:26:20;21.60;43.60
16404;DHT22;8311;50.158;8.642;2023-04-24T16:29:14;21.60;43.60
16404;DHT22;8311;50.158;8.642;2023-04-24T16:32:08;21.60;43.60
16404;DHT22;8311;50.158;8.642;2023-04-24T16:35:02;21.60;43.60
16404;DHT22;8311;50.158;8.642;2023-04-24T16:37:56;21.60;43.70
16404;DHT22;8311;50.158;8.642;2023-04-24T16:40:49;21.60;43.60
16404;DHT22;8311;50.158;8.642;2023-04-24T16:43:42;21.60;43.60
16404;DHT22;8311;50.158;8.642;2023-04-24T16:46:36;21.60;43.60
16404;DHT22;8311;50.158;8.642;2023-04-24T16:49:30;21.60;43.60
16404;DHT22;8311;50.158;8.642;2023-04-24T16:52:23;21.60;43.60
16404;DHT22;8311;50.158;8.642;2023-04-24T16:55:16;21.60;43.60
16404;DHT22;8311;50.158;8.642;2023-04-24T16:58:10;21.60;43.60
16404;DHT22;8311;50.158;8.642;2023-04-24T17:01:04;21.60;43.60
16404;DHT22;8311;50.158;8.642;2023-04-24T17:03:59;21.60;43.70
16404;DHT22;8311;50.158;8.642;2023-04-24T17:06:53;21.60;43.70
16404;DHT22;8311;50.158;8.642;2023-04-24T17:09:46;21.60;43.70
16404;DHT22;8311;50.158;8.642;2023-04-24T17:12:39;21.60;43.70
16404;DHT22;8311;50.158;8.642;2023-04-24T17:15:32;21.60;43.70
16404;DHT22;8311;50.158;8.642;2023-04-24T17:18:26;21.60;43.70
16404;DHT22;8311;50.158;8.642;2023-04-24T17:21:20;21.60;43.70
16404;DHT22;8311;50.158;8.642;2023-04-24T17:24:14;21.60;43.70
16404;DHT22;8311;50.158;8.642;2023-04-24T17:27:08;21.60;43.70
16404;DHT22;8311;50.158;8.642;2023-04-24T17:30:07;21.60;43.80
16404;DHT22;8311;50.158;8.642;2023-04-24T17:33:01;21.60;43.80
16404;DHT22;8311;50.158;8.642;2023-04-24T17:35:54;21.60;43.80
16404;DHT22;8311;50.158;8.642;2023-04-24T17:38:49;21.60;43.90
16404;DHT22;8311;50.158;8.642;2023-04-24T17:41:43;21.60;43.90
16404;DHT22;8311;50.158;8.642;2023-04-24T17:44:36;21.60;43.90
16404;DHT22;8311;50.158;8.642;2023-04-24T17:47:29;21.60;43.90
16404;DHT22;8311;50.158;8.642;2023-04-24T17:50:23;21.60;43.90
16404;DHT22;8311;50.158;8.642;2023-04-24T17:53:16;21.60;43.90
16404;DHT22;8311;50.158;8.642;2023-04-24T17:56:12;21.60;43.90
16404;DHT22;8311;50.158;8.642;2023-04-24T17:59:05;21.60;43.90
16404;DHT22;8311;50.158;8.642;2023-04-24T18:01:58;21.60;44.00
16404;DHT22;8311;50.158;8.642;2023-04-24T18:04:51;21.60;44.00
16404;DHT22;8311;50.158;8.642;2023-04-24T18:07:46;21.60;44.00
16404;DHT22;8311;50.158;8.642;2023-04-24T18:10:39;21.60;44.10
16404;DHT22;8311;50.158;8.642;2023-04-24T18:13:36;21.60;44.10
16404;DHT22;8311;50.158;8.642;2023-04-24T18:16:30;21.60;44.70
16404;DHT22;8311;50.158;8.642;2023-04-24T18:19:23;21.60;44.10
16404;DHT22;8311;50.158;8.642;2023-04-24T18:22:16;21.60;44.10
16404;DHT22;8311;50.158;8.642;2023-04-24T18:25:10;21.60;44.10
16404;DHT22;8311;50.158;8.642;2023-04-24T18:28:03;21.60;44.10
16404;DHT22;8311;50.158;8.642;2023-04-24T18:30:57;21.60;44.10
16404;DHT22;8311;50.158;8.642;2023-04-24T18:33:51;21.60;44.00
16404;DHT22;8311;50.158;8.642;2023-04-24T18:36:46;21.60;44.00